createdAt,value
2022-12-23T00:02:42.510Z,95.27
2022-12-23T00:06:35.444Z,95.27
2022-12-23T00:10:28.202Z,95.32
2022-12-23T00:14:39.292Z,95.30
2022-12-23T00:18:32.875Z,95.23
2022-12-23T00:22:45.809Z,95.18
2022-12-23T00:26:38.964Z,95.16
2022-12-23T00:30:31.696Z,95.16
2022-12-23T00:34:24.690Z,95.20
2022-12-23T00:38:38.617Z,95.12
2022-12-23T00:42:51.716Z,95.16
2022-12-23T00:46:44.666Z,95.18
2022-12-23T00:50:39.732Z,95.24
2022-12-23T00:54:32.591Z,95.25
2022-12-23T00:58:25.961Z,95.32
2022-12-23T01:02:37.524Z,95.29
2022-12-23T01:06:30.372Z,95.34
2022-12-23T01:10:23.114Z,95.32
2022-12-23T01:14:17.773Z,95.34
2022-12-23T01:18:10.360Z,95.34
2022-12-23T01:22:03.699Z,95.34
2022-12-23T01:26:01.267Z,95.40
2022-12-23T01:29:54.073Z,95.23
2022-12-23T01:33:46.880Z,95.19
2022-12-23T01:37:39.400Z,95.11
2022-12-23T01:41:52.838Z,94.96
2022-12-23T01:45:46.239Z,95.19
2022-12-23T01:49:39.715Z,95.47
2022-12-23T01:53:37.423Z,95.52
2022-12-23T01:57:30.649Z,95.56
2022-12-23T02:01:46.023Z,95.51
2022-12-23T02:05:39.481Z,95.47
2022-12-23T02:09:38.396Z,95.48
2022-12-23T02:14:17.012Z,95.44
2022-12-23T02:18:15.333Z,95.52
2022-12-23T02:22:47.081Z,95.22
2022-12-23T02:27:16.676Z,95.09
2022-12-23T02:31:34.758Z,95.22
2022-12-23T02:35:42.768Z,94.87
2022-12-23T02:39:50.476Z,95.13
2022-12-23T02:43:47.863Z,94.78
2022-12-23T02:47:56.746Z,95.08
2022-12-23T02:51:53.998Z,94.81
2022-12-23T02:55:49.411Z,94.96
2022-12-23T02:59:48.778Z,94.41
2022-12-23T03:03:42.003Z,94.69
2022-12-23T03:07:43.444Z,94.30
2022-12-23T03:12:01.769Z,94.40
2022-12-23T03:16:11.656Z,94.63
2022-12-23T03:20:22.365Z,94.45
2022-12-23T03:24:41.097Z,94.18
2022-12-23T03:28:42.701Z,94.44
2022-12-23T03:32:46.596Z,94.78
2022-12-23T03:36:44.318Z,95.02
2022-12-23T03:40:38.097Z,95.32
2022-12-23T03:44:35.998Z,95.44
2022-12-23T03:48:49.022Z,95.30
2022-12-23T03:52:52.446Z,95.41
2022-12-23T03:57:01.600Z,95.45
2022-12-23T04:01:18.753Z,95.37
2022-12-23T04:05:27.245Z,95.42
2022-12-23T04:09:22.933Z,95.13
2022-12-23T04:13:19.987Z,95.32
2022-12-23T04:17:12.625Z,95.56
2022-12-23T04:21:05.876Z,95.40
2022-12-23T04:24:58.516Z,95.49
2022-12-23T04:28:51.066Z,95.35
2022-12-23T04:32:43.772Z,95.49
2022-12-23T04:36:36.595Z,95.27
2022-12-23T04:40:29.057Z,95.65
2022-12-23T04:44:21.877Z,95.50
2022-12-23T04:48:14.306Z,95.64
2022-12-23T04:52:07.541Z,95.75
2022-12-23T04:56:00.106Z,95.94
2022-12-23T04:59:52.796Z,95.95
2022-12-23T05:03:45.623Z,95.52
2022-12-23T05:07:38.292Z,95.81
2022-12-23T05:11:37.073Z,95.92
2022-12-23T05:15:33.241Z,95.93
2022-12-23T05:19:25.953Z,96.07
2022-12-23T05:23:19.025Z,96.14
2022-12-23T05:27:11.602Z,96.22
2022-12-23T05:31:08.446Z,96.38
2022-12-23T05:35:01.082Z,96.20
2022-12-23T05:38:53.714Z,96.29
2022-12-23T05:42:46.946Z,96.36
2022-12-23T05:46:39.689Z,96.32
2022-12-23T05:50:33.071Z,96.21
2022-12-23T05:54:25.804Z,95.61
2022-12-23T05:58:18.564Z,95.18
2022-12-23T06:02:11.538Z,95.42
2022-12-23T06:06:04.565Z,95.40
2022-12-23T06:09:57.439Z,95.27
2022-12-23T06:13:50.045Z,95.16
2022-12-23T06:17:42.976Z,95.04
2022-12-23T06:21:36.979Z,95.24
2022-12-23T06:25:29.772Z,95.57
2022-12-23T06:29:22.546Z,95.54
2022-12-23T06:33:15.066Z,95.74
2022-12-23T06:37:07.898Z,95.75
2022-12-23T06:41:00.677Z,95.81
2022-12-23T06:44:53.444Z,95.68
2022-12-23T06:48:46.213Z,95.58
2022-12-23T06:52:38.886Z,95.50
2022-12-23T06:56:33.907Z,95.30
2022-12-23T07:00:26.728Z,95.21
2022-12-23T07:04:19.352Z,95.06
2022-12-23T07:08:12.181Z,94.46
2022-12-23T07:12:05.921Z,94.32
2022-12-23T07:15:59.226Z,94.52
2022-12-23T07:19:51.799Z,94.82
2022-12-23T07:23:44.713Z,95.14
2022-12-23T07:27:37.413Z,95.32
2022-12-23T07:31:32.109Z,95.27
2022-12-23T07:35:25.321Z,95.19
2022-12-23T07:39:18.034Z,94.90
2022-12-23T07:43:10.965Z,94.09
2022-12-23T07:47:03.638Z,94.50
2022-12-23T07:51:04.105Z,94.67
2022-12-23T07:54:57.049Z,94.71
2022-12-23T07:58:50.535Z,94.02
2022-12-23T08:02:44.016Z,94.22
2022-12-23T08:06:37.107Z,93.85
2022-12-23T08:10:30.007Z,93.88
2022-12-23T08:14:23.668Z,93.69
2022-12-23T08:18:16.323Z,93.96
2022-12-23T08:22:09.095Z,94.40
2022-12-23T08:26:03.670Z,94.61
2022-12-23T08:29:56.300Z,94.85
2022-12-23T08:33:52.135Z,94.50
2022-12-23T08:37:44.853Z,94.26
2022-12-23T08:41:41.415Z,93.58
2022-12-23T08:45:38.862Z,93.17
2022-12-23T08:49:31.510Z,92.93
2022-12-23T08:53:24.281Z,92.33
2022-12-23T08:57:17.043Z,93.04
2022-12-23T09:01:12.648Z,93.17
2022-12-23T09:05:05.635Z,93.59
2022-12-23T09:08:58.984Z,93.94
2022-12-23T09:12:52.002Z,94.00
2022-12-23T09:16:44.876Z,93.94
2022-12-23T09:20:39.024Z,93.92
2022-12-23T09:24:32.661Z,92.49
2022-12-23T09:28:26.355Z,92.58
2022-12-23T09:32:19.518Z,92.87
2022-12-23T09:36:12.127Z,92.27
2022-12-23T09:40:06.524Z,91.83
2022-12-23T09:44:37.770Z,92.18
2022-12-23T09:48:39.261Z,91.75
2022-12-23T09:52:49.875Z,92.53
2022-12-23T09:57:01.003Z,93.39
2022-12-23T10:01:17.013Z,92.00
2022-12-23T10:05:59.489Z,92.55
2022-12-23T10:09:54.814Z,91.36
2022-12-23T10:13:51.813Z,91.78
2022-12-23T10:17:45.855Z,91.91
2022-12-23T10:21:47.608Z,92.13
2022-12-23T10:25:50.308Z,92.41
2022-12-23T10:29:43.385Z,92.00
2022-12-23T10:34:13.791Z,92.26
2022-12-23T10:38:15.486Z,92.01
2022-12-23T10:42:11.422Z,92.23
2022-12-23T10:46:30.861Z,92.52
2022-12-23T10:50:39.565Z,92.25
2022-12-23T10:54:37.145Z,92.28
2022-12-23T10:58:30.729Z,91.27
2022-12-23T11:02:46.012Z,91.22
2022-12-23T11:06:41.280Z,91.03
2022-12-23T11:10:34.448Z,91.16
2022-12-23T11:14:31.432Z,90.89
2022-12-23T11:18:24.064Z,90.31
2022-12-23T11:22:25.562Z,90.92
2022-12-23T11:26:20.400Z,91.32
2022-12-23T11:30:20.017Z,91.22
2022-12-23T11:34:24.762Z,91.08
2022-12-23T11:38:17.460Z,90.47
2022-12-23T11:42:19.323Z,90.77
2022-12-23T11:46:24.462Z,90.78
2022-12-23T11:50:38.699Z,90.69
2022-12-23T11:54:32.907Z,91.49
2022-12-23T11:58:26.346Z,91.96
2022-12-23T12:02:39.983Z,91.40
2022-12-23T12:06:33.482Z,91.17
2022-12-23T12:10:32.947Z,91.29
2022-12-23T12:14:49.873Z,91.78
2022-12-23T12:18:43.907Z,91.69
2022-12-23T12:22:46.324Z,91.65
2022-12-23T12:26:40.816Z,91.74
2022-12-23T12:30:41.004Z,91.54
2022-12-23T12:35:01.825Z,91.48
2022-12-23T12:38:57.457Z,91.05
2022-12-23T12:43:00.140Z,91.01
2022-12-23T12:47:28.004Z,91.00
2022-12-23T12:51:31.723Z,91.40
2022-12-23T12:55:35.112Z,91.45
2022-12-23T12:59:33.169Z,92.00
2022-12-23T13:03:50.450Z,92.05
2022-12-23T13:07:49.201Z,92.18
2022-12-23T13:12:04.170Z,92.32
2022-12-23T13:16:02.619Z,92.20
2022-12-23T13:20:23.425Z,92.30
2022-12-23T13:24:34.519Z,92.46
2022-12-23T13:28:45.931Z,92.56
2022-12-23T13:33:24.364Z,92.37
2022-12-23T13:37:42.494Z,92.56
2022-12-23T13:41:41.321Z,92.74
2022-12-23T13:45:38.862Z,92.18
2022-12-23T13:49:40.479Z,92.56
2022-12-23T13:53:48.252Z,92.33
2022-12-23T13:58:02.166Z,92.54
2022-12-23T14:01:56.843Z,92.83
2022-12-23T14:05:53.370Z,93.06
2022-12-23T14:09:53.372Z,93.53
2022-12-23T14:13:52.235Z,93.78
2022-12-23T14:18:06.832Z,94.05
2022-12-23T14:22:51.155Z,93.98
2022-12-23T14:27:17.480Z,94.00
2022-12-23T14:31:44.944Z,93.99
2022-12-23T14:36:13.360Z,93.47
2022-12-23T14:40:37.243Z,93.99
2022-12-23T14:44:35.835Z,93.82
2022-12-23T14:48:44.818Z,94.05
2022-12-23T14:52:48.566Z,93.81
2022-12-23T14:56:42.115Z,93.73
2022-12-23T15:00:46.459Z,93.89
2022-12-23T15:04:55.051Z,94.19
2022-12-23T15:08:51.016Z,94.10
2022-12-23T15:12:48.356Z,94.21
2022-12-23T15:16:45.291Z,94.39
2022-12-23T15:20:38.535Z,94.58
2022-12-23T15:24:31.201Z,94.41
2022-12-23T15:28:38.985Z,94.60
2022-12-23T15:32:32.182Z,94.77
2022-12-23T15:36:32.340Z,94.53
2022-12-23T15:40:31.820Z,94.65
2022-12-23T15:44:33.443Z,94.94
2022-12-23T15:48:32.199Z,95.19
2022-12-23T15:52:25.451Z,95.16
2022-12-23T15:56:25.997Z,94.97
2022-12-23T16:00:21.957Z,94.76
2022-12-23T16:04:27.071Z,94.88
2022-12-23T16:08:29.592Z,94.44
2022-12-23T16:12:25.934Z,94.84
2022-12-23T16:16:42.694Z,94.72
2022-12-23T16:20:42.040Z,95.05
2022-12-23T16:24:34.893Z,95.08
2022-12-23T16:28:33.768Z,95.09
2022-12-23T16:32:26.649Z,95.25
2022-12-23T16:36:28.429Z,95.19
2022-12-23T16:40:21.449Z,94.88
2022-12-23T16:44:14.313Z,95.15
2022-12-23T16:48:18.720Z,95.24
2022-12-23T16:52:14.495Z,95.34
2022-12-23T16:56:18.634Z,95.25
2022-12-23T17:00:16.782Z,95.17
2022-12-23T17:04:09.758Z,95.05
2022-12-23T17:08:02.522Z,95.41
2022-12-23T17:11:58.071Z,95.43
2022-12-23T17:15:50.918Z,95.39
2022-12-23T17:19:43.875Z,95.54
2022-12-23T17:23:36.476Z,95.32
2022-12-23T17:27:29.307Z,95.39
2022-12-23T17:31:27.157Z,95.45
2022-12-23T17:35:21.136Z,95.11
2022-12-23T17:39:13.820Z,94.68
2022-12-23T17:43:06.476Z,94.91
2022-12-23T17:46:59.277Z,95.06
2022-12-23T17:50:52.351Z,94.91
2022-12-23T17:54:48.088Z,94.59
2022-12-23T17:58:42.134Z,93.78
2022-12-23T18:02:35.639Z,94.16
2022-12-23T18:06:29.220Z,94.19
2022-12-23T18:10:25.514Z,93.48
2022-12-23T18:14:24.033Z,93.93
2022-12-23T18:18:27.581Z,94.09
2022-12-23T18:22:24.134Z,94.36
2022-12-23T18:26:17.179Z,94.40
2022-12-23T18:30:10.717Z,94.71
2022-12-23T18:34:04.118Z,93.95
2022-12-23T18:37:58.517Z,94.38
2022-12-23T18:41:51.422Z,94.49
2022-12-23T18:45:50.715Z,94.50
2022-12-23T18:49:45.439Z,95.26
2022-12-23T18:53:38.183Z,95.21
2022-12-23T18:57:31.036Z,94.85
2022-12-23T19:01:26.334Z,94.91
2022-12-23T19:05:25.946Z,95.04
2022-12-23T19:09:21.979Z,95.33
2022-12-23T19:13:15.699Z,95.41
2022-12-23T19:17:08.549Z,95.36
2022-12-23T19:21:04.731Z,95.52
2022-12-23T19:25:05.961Z,95.78
2022-12-23T19:28:59.402Z,96.07
2022-12-23T19:32:53.654Z,96.12
2022-12-23T19:36:46.484Z,95.61
2022-12-23T19:40:39.866Z,95.23
2022-12-23T19:44:32.542Z,95.26
2022-12-23T19:48:25.530Z,95.46
2022-12-23T19:52:18.212Z,95.44
2022-12-23T19:56:16.982Z,95.61
2022-12-23T20:00:10.400Z,95.57
2022-12-23T20:04:03.698Z,95.40
2022-12-23T20:07:56.350Z,94.95
2022-12-23T20:11:50.441Z,94.83
2022-12-23T20:15:43.180Z,94.74
2022-12-23T20:19:39.128Z,94.49
2022-12-23T20:23:36.779Z,94.09
2022-12-23T20:27:29.643Z,94.50
2022-12-23T20:31:25.296Z,94.48
2022-12-23T20:35:18.608Z,94.35
2022-12-23T20:39:11.623Z,94.39
2022-12-23T20:43:04.557Z,94.28
2022-12-23T20:46:57.439Z,94.48
2022-12-23T20:50:50.104Z,94.69
2022-12-23T20:54:43.037Z,94.88
2022-12-23T20:58:57.901Z,94.72
2022-12-23T21:02:50.971Z,94.73
2022-12-23T21:06:44.312Z,94.72
2022-12-23T21:10:37.191Z,94.54
2022-12-23T21:14:29.891Z,94.91
2022-12-23T21:18:22.462Z,95.05
2022-12-23T21:22:15.405Z,94.88
2022-12-23T21:26:14.332Z,94.50
2022-12-23T21:30:07.555Z,94.42
2022-12-23T21:34:02.538Z,94.67
2022-12-23T21:37:55.113Z,94.51
2022-12-23T21:41:51.214Z,94.74
2022-12-23T21:45:43.938Z,94.50
2022-12-23T21:49:36.752Z,94.74
2022-12-23T21:53:29.490Z,94.69
2022-12-23T21:57:22.035Z,94.53
2022-12-23T22:01:20.657Z,94.56
2022-12-23T22:05:14.945Z,94.78
2022-12-23T22:09:08.345Z,94.49
2022-12-23T22:13:01.184Z,94.65
2022-12-23T22:16:53.871Z,95.03
2022-12-23T22:20:46.708Z,94.83
2022-12-23T22:24:39.515Z,94.63
2022-12-23T22:28:34.074Z,94.75
2022-12-23T22:32:27.099Z,94.67
2022-12-23T22:36:20.088Z,94.77
2022-12-23T22:40:13.349Z,94.96
2022-12-23T22:44:08.349Z,94.83
2022-12-23T22:48:00.957Z,95.19
2022-12-23T22:51:54.057Z,95.17
2022-12-23T22:55:57.005Z,94.83
2022-12-23T22:59:50.160Z,94.70
2022-12-23T23:03:43.132Z,94.43
2022-12-23T23:07:35.701Z,94.70
2022-12-23T23:11:30.205Z,94.99
2022-12-23T23:15:22.821Z,94.87
2022-12-23T23:19:17.259Z,94.41
2022-12-23T23:23:10.432Z,94.06
2022-12-23T23:27:02.928Z,94.72
2022-12-23T23:31:23.859Z,94.97
2022-12-23T23:35:11.126Z,94.90
2022-12-23T23:39:04.230Z,94.10
2022-12-23T23:42:56.912Z,94.49
2022-12-23T23:46:49.646Z,94.34
2022-12-23T23:50:42.837Z,94.47
2022-12-23T23:54:35.950Z,94.46
2022-12-23T23:58:28.564Z,94.41
